Time;durP1;ratioP1;P1;durP2;ratioP2;P2;SDS_P1;SDS_P2;PMS_P1;PMS_P2;Temp;Humidity;BMP_temperature;BMP_pressure;BME280_temperature;BME280_humidity;BME280_pressure;Samples;Min_cycle;Max_cycle;Signal;HPM_P1;HPM_P2
2024/02/24 00:01:04;;;;;;;;;;;;;;;;;;5040651;28;4992;-59
2024/02/24 00:03:29;;;;;;;;;;;;;;;;;;5037156;28;5347;-59
2024/02/24 00:05:54;;;;;;;;;;;;;;;;;;5034808;28;1985;-60
2024/02/24 00:08:20;;;;;;;;;;;;;;;;;;5037650;28;5106;-62
2024/02/24 00:10:46;;;;;;;;;;;;;;;;;;5034405;28;5017;-59
2024/02/24 00:13:11;;;;;;;;;;;;;;;;;;5037923;28;4975;-59
2024/02/24 00:15:37;;;;;;;;;;;;;;;;;;5040570;28;5266;-61
2024/02/24 00:18:02;;;;;;;;;;;;;;;;;;5034641;28;1159;-62
2024/02/24 00:20:27;;;;;;;;;;;;;;;;;;5038650;28;4439;-62
2024/02/24 00:22:53;;;;;;;;;;;;;;;;;;5034966;28;5082;-62
2024/02/24 00:25:18;;;;;;;;;;;;;;;;;;5039633;28;4997;-61
2024/02/24 00:27:43;;;;;;;;;;;;;;;;;;5013757;28;4510;-62
2024/02/24 00:30:09;;;;;;;;;;;;;;;;;;5039110;28;4603;-61
2024/02/24 00:32:34;;;;;;;;;;;;;;;;;;5036449;28;1101;-59
2024/02/24 00:34:59;;;;;;;;;;;;;;;;;;5040403;28;5096;-59
2024/02/24 00:37:25;;;;;;;;;;;;;;;;;;5042986;28;4954;-59
2024/02/24 00:39:51;;;;;;;;;;;;;;;;;;5033188;28;4990;-59
2024/02/24 00:42:16;;;;;;;;;;;;;;;;;;5043504;28;5162;-62
2024/02/24 00:44:41;;;;;;;;;;;;;;;;;;5032580;28;1080;-61
2024/02/24 00:47:07;;;;;;;;;;;;;;;;;;5028935;28;5558;-60
2024/02/24 00:49:32;;;;;;;;;;;;;;;;;;5034766;28;4492;-60
2024/02/24 00:51:57;;;;;;;;;;;;;;;;;;5029607;28;5029;-61
2024/02/24 00:54:22;;;;;;;;;;;;;;;;;;5038668;28;4872;-61
2024/02/24 00:56:48;;;;;;;;;;;;;;;;;;5039366;28;1455;-61
2024/02/24 00:59:13;;;;;;;;;;;;;;;;;;5046820;28;4977;-66
2024/02/24 01:01:39;;;;;;;;;;;;;;;;;;5039834;28;5174;-61
2024/02/24 01:04:04;;;;;;;;;;;;;;;;;;5035186;28;5189;-62
2024/02/24 01:06:29;;;;;;;;;;;;;;;;;;5033702;28;5123;-61
2024/02/24 01:08:55;;;;;;;;;;;;;;;;;;5040533;28;1100;-62
2024/02/24 01:11:20;;;;;;;;;;;;;;;;;;5041286;28;5188;-64
2024/02/24 01:13:45;;;;;;;;;;;;;;;;;;5030756;28;4955;-61
2024/02/24 01:16:11;;;;;;;;;;;;;;;;;;5038676;28;5132;-60
2024/02/24 01:18:36;;;;;;;;;;;;;;;;;;5033528;28;6058;-60
2024/02/24 01:21:02;;;;;;;;;;;;;;;;;;5037264;28;1136;-61
2024/02/24 01:23:27;;;;;;;;;;;;;;;;;;5034352;28;4958;-61
2024/02/24 01:25:53;;;;;;;;;;;;;;;;;;5037472;28;5067;-60
2024/02/24 01:28:18;;;;;;;;;;;;;;;;;;5041624;28;5022;-60
2024/02/24 01:30:43;;;;;;;;;;;;;;;;;;5041282;28;4956;-62
2024/02/24 01:33:09;;;;;;;;;;;;;;;;;;5022450;28;5688;-60
2024/02/24 01:35:35;;;;;;;;;;;;;;;;;;5025169;28;2124;-60
2024/02/24 01:38:01;;;;;;;;;;;;;;;;;;5035291;28;4588;-61
2024/02/24 01:40:26;;;;;;;;;;;;;;;;;;5035922;28;4874;-59
2024/02/24 01:42:51;;;;;;;;;;;;;;;;;;5035274;28;4671;-62
2024/02/24 01:45:16;;;;;;;;;;;;;;;;;;5033782;28;5165;-60
2024/02/24 01:47:42;;;;;;;;;;;;;;;;;;5034051;28;1910;-60
2024/02/24 01:50:09;;;;;;;;;;;;;;;;;;5020414;28;5540;-62
2024/02/24 01:52:35;;;;;;;;;;;;;;;;;;5052076;28;5071;-61
2024/02/24 01:55:02;;;;;;;;;;;;;;;;;;5048949;28;5262;-60
2024/02/24 01:57:27;;;;;;;;;;;;;;;;;;5045363;28;4588;-61
2024/02/24 01:59:53;;;;;;;;;;;;;;;;;;5030353;28;1101;-60
2024/02/24 02:02:18;;;;;;;;;;;;;;;;;;5030479;28;5003;-61
2024/02/24 02:04:44;;;;;;;;;;;;;;;;;;5040272;28;5184;-60
2024/02/24 02:07:09;;;;;;;;;;;;;;;;;;5029278;28;5026;-59
2024/02/24 02:09:34;;;;;;;;;;;;;;;;;;5035550;28;4676;-61
2024/02/24 02:12:00;;;;;;;;;;;;;;;;;;5049521;28;1116;-61
2024/02/24 02:14:25;;;;;;;;;;;;;;;;;;5038836;28;4883;-61
2024/02/24 02:16:50;;;;;;;;;;;;;;;;;;5033739;28;4994;-60
2024/02/24 02:19:16;;;;;;;;;;;;;;;;;;5032934;28;5793;-60
2024/02/24 02:21:41;;;;;;;;;;;;;;;;;;5030509;28;4876;-62
2024/02/24 02:24:06;;;;;;;;;;;;;;;;;;5038480;28;1114;-60
2024/02/24 02:26:32;;;;;;;;;;;;;;;;;;5036487;28;4951;-60
2024/02/24 02:28:57;;;;;;;;;;;;;;;;;;5034067;28;4977;-62
2024/02/24 02:31:22;;;;;;;;;;;;;;;;;;5029153;28;5123;-63
2024/02/24 02:33:48;;;;;;;;;;;;;;;;;;5033701;28;5776;-60
2024/02/24 02:36:13;;;;;;;;;;;;;;;;;;5030421;28;4886;-61
2024/02/24 02:38:38;;;;;;;;;;;;;;;;;;5034046;28;1097;-60
2024/02/24 02:41:04;;;;;;;;;;;;;;;;;;5048008;28;4496;-61
2024/02/24 02:43:29;;;;;;;;;;;;;;;;;;5036993;28;5112;-61
2024/02/24 02:45:54;;;;;;;;;;;;;;;;;;5030985;28;4898;-61
2024/02/24 02:48:20;;;;;;;;;;;;;;;;;;5036887;28;4654;-59
2024/02/24 02:50:45;;;;;;;;;;;;;;;;;;5018125;28;1111;-60
2024/02/24 02:53:10;;;;;;;;;;;;;;;;;;5040275;28;5025;-61
2024/02/24 02:55:36;;;;;;;;;;;;;;;;;;5047203;28;4685;-60
2024/02/24 02:58:01;;;;;;;;;;;;;;;;;;5044907;28;4873;-58
2024/02/24 03:00:26;;;;;;;;;;;;;;;;;;5039086;28;5060;-59
2024/02/24 03:02:52;;;;;;;;;;;;;;;;;;5041949;28;1102;-61
2024/02/24 03:05:17;;;;;;;;;;;;;;;;;;5034652;28;5141;-59
2024/02/24 03:07:42;;;;;;;;;;;;;;;;;;5040367;28;5207;-61
2024/02/24 03:10:08;;;;;;;;;;;;;;;;;;5035868;28;5147;-62
2024/02/24 03:12:33;;;;;;;;;;;;;;;;;;5034372;28;4962;-61
2024/02/24 03:14:58;;;;;;;;;;;;;;;;;;5036220;28;1273;-65
2024/02/24 03:17:24;;;;;;;;;;;;;;;;;;5020709;28;4943;-59
2024/02/24 03:19:49;;;;;;;;;;;;;;;;;;5038537;28;4927;-59
2024/02/24 03:22:14;;;;;;;;;;;;;;;;;;5034622;28;4977;-61
2024/02/24 03:24:43;;;;;;;;;;;;;;;;;;5039124;28;4965;-60
2024/02/24 03:27:08;;;;;;;;;;;;;;;;;;5030872;28;2460;-59
2024/02/24 03:29:34;;;;;;;;;;;;;;;;;;5035270;28;4963;-61
2024/02/24 03:32:00;;;;;;;;;;;;;;;;;;5028828;28;5310;-59
2024/02/24 03:34:26;;;;;;;;;;;;;;;;;;5046761;28;5145;-59
2024/02/24 03:36:51;;;;;;;;;;;;;;;;;;5033868;28;5364;-59
2024/02/24 03:39:18;;;;;;;;;;;;;;;;;;5035074;28;5075;-62
2024/02/24 03:41:44;;;;;;;;;;;;;;;;;;5035467;28;1187;-61
2024/02/24 03:44:09;;;;;;;;;;;;;;;;;;5033303;28;4939;-61
2024/02/24 03:46:34;;;;;;;;;;;;;;;;;;5030280;28;5065;-59
2024/02/24 03:49:00;;;;;;;;;;;;;;;;;;5039721;28;4651;-60
2024/02/24 03:51:25;;;;;;;;;;;;;;;;;;5035169;28;5116;-60
2024/02/24 03:53:51;;;;;;;;;;;;;;;;;;5043320;28;1090;-60
2024/02/24 03:56:17;;;;;;;;;;;;;;;;;;5042638;28;4847;-60
2024/02/24 03:58:44;;;;;;;;;;;;;;;;;;5048668;28;4430;-60
2024/02/24 04:01:09;;;;;;;;;;;;;;;;;;5039179;28;5117;-61
2024/02/24 04:03:34;;;;;;;;;;;;;;;;;;5058761;28;4706;-61
2024/02/24 04:06:00;;;;;;;;;;;;;;;;;;5034314;28;1979;-60
2024/02/24 04:08:25;;;;;;;;;;;;;;;;;;5038960;28;5044;-60
2024/02/24 04:10:50;;;;;;;;;;;;;;;;;;5033275;28;4922;-61
2024/02/24 04:13:16;;;;;;;;;;;;;;;;;;5039936;28;5141;-59
2024/02/24 04:15:47;;;;;;;;;;;;;;;;;;5041926;28;5081;-61
2024/02/24 04:18:13;;;;;;;;;;;;;;;;;;5034285;28;5245;-63
2024/02/24 04:20:38;;;;;;;;;;;;;;;;;;5039860;28;1089;-63
2024/02/24 04:23:04;;;;;;;;;;;;;;;;;;5032347;28;5009;-61
2024/02/24 04:25:29;;;;;;;;;;;;;;;;;;5030395;28;5089;-60
2024/02/24 04:27:55;;;;;;;;;;;;;;;;;;5037832;28;5701;-60
2024/02/24 04:30:20;;;;;;;;;;;;;;;;;;5034079;28;5194;-60
2024/02/24 04:32:45;;;;;;;;;;;;;;;;;;5036656;28;1089;-60
2024/02/24 04:35:11;;;;;;;;;;;;;;;;;;5029229;28;5127;-60
2024/02/24 04:37:36;;;;;;;;;;;;;;;;;;5032215;28;4919;-60
2024/02/24 04:40:01;;;;;;;;;;;;;;;;;;5033479;28;5048;-62
2024/02/24 04:42:27;;;;;;;;;;;;;;;;;;5031038;28;4455;-62
2024/02/24 04:44:52;;;;;;;;;;;;;;;;;;5038312;28;1074;-60
2024/02/24 04:47:22;;;;;;;;;;;;;;;;;;5034282;28;4837;-61
2024/02/24 04:49:48;;;;;;;;;;;;;;;;;;5036683;28;4552;-60
2024/02/24 04:52:13;;;;;;;;;;;;;;;;;;5033177;28;5026;-59
2024/02/24 04:54:38;;;;;;;;;;;;;;;;;;5038385;28;5098;-60
2024/02/24 04:57:04;;;;;;;;;;;;;;;;;;5043364;28;1077;-60
2024/02/24 04:59:29;;;;;;;;;;;;;;;;;;5038268;28;5182;-62
2024/02/24 05:01:54;;;;;;;;;;;;;;;;;;5041120;28;4995;-62
2024/02/24 05:04:20;;;;;;;;;;;;;;;;;;5035266;28;5984;-61
2024/02/24 05:06:45;;;;;;;;;;;;;;;;;;5034665;28;5117;-61
2024/02/24 05:09:11;;;;;;;;;;;;;;;;;;5036912;28;5090;-61
2024/02/24 05:11:37;;;;;;;;;;;;;;;;;;5037329;28;1145;-60
2024/02/24 05:14:02;;;;;;;;;;;;;;;;;;5039118;28;5070;-60
2024/02/24 05:16:27;;;;;;;;;;;;;;;;;;5039658;28;4995;-59
2024/02/24 05:18:53;;;;;;;;;;;;;;;;;;5032964;28;5872;-60
2024/02/24 05:21:21;;;;;;;;;;;;;;;;;;5028217;28;5056;-61
2024/02/24 05:23:47;;;;;;;;;;;;;;;;;;5031282;28;1196;-60
2024/02/24 05:26:25;;;;;;;;;;;;;;;;;;5033623;28;4678;-66
2024/02/24 05:28:50;;;;;;;;;;;;;;;;;;5024764;28;4583;-61
2024/02/24 05:31:15;;;;;;;;;;;;;;;;;;5024913;28;4982;-58
2024/02/24 05:33:41;;;;;;;;;;;;;;;;;;5035112;28;5038;-60
2024/02/24 05:36:06;;;;;;;;;;;;;;;;;;5033843;28;1078;-63
2024/02/24 05:38:33;;;;;;;;;;;;;;;;;;5032952;28;4942;-62
2024/02/24 05:41:00;;;;;;;;;;;;;;;;;;5033149;28;5054;-60
2024/02/24 05:43:27;;;;;;;;;;;;;;;;;;5033722;28;5252;-61
2024/02/24 05:45:53;;;;;;;;;;;;;;;;;;5030575;28;4429;-61
2024/02/24 05:48:18;;;;;;;;;;;;;;;;;;5037051;28;5495;-61
2024/02/24 05:50:43;;;;;;;;;;;;;;;;;;5031289;28;1233;-59
2024/02/24 05:53:09;;;;;;;;;;;;;;;;;;5036884;28;4962;-59
2024/02/24 05:55:34;;;;;;;;;;;;;;;;;;5057869;28;4729;-61
2024/02/24 05:57:59;;;;;;;;;;;;;;;;;;5040481;28;5323;-61
2024/02/24 06:00:25;;;;;;;;;;;;;;;;;;5043130;28;5072;-61
2024/02/24 06:02:50;;;;;;;;;;;;;;;;;;5032504;28;1388;-60
2024/02/24 06:05:15;;;;;;;;;;;;;;;;;;5024431;28;4838;-60
2024/02/24 06:07:41;;;;;;;;;;;;;;;;;;5038211;28;4996;-60
2024/02/24 06:10:06;;;;;;;;;;;;;;;;;;5033338;28;5102;-62
2024/02/24 06:12:32;;;;;;;;;;;;;;;;;;5036366;28;4631;-62
2024/02/24 06:14:57;;;;;;;;;;;;;;;;;;5043124;28;1050;-62
2024/02/24 06:17:22;;;;;;;;;;;;;;;;;;5027860;28;5209;-60
2024/02/24 06:19:48;;;;;;;;;;;;;;;;;;5040043;28;5900;-61
2024/02/24 06:22:13;;;;;;;;;;;;;;;;;;5033406;28;4980;-65
2024/02/24 06:24:38;;;;;;;;;;;;;;;;;;5036355;28;5105;-59
2024/02/24 06:27:04;;;;;;;;;;;;;;;;;;5033072;28;1922;-59
2024/02/24 06:29:29;;;;;;;;;;;;;;;;;;5036511;28;4991;-60
2024/02/24 06:31:54;;;;;;;;;;;;;;;;;;5026524;28;4940;-62
2024/02/24 06:34:19;;;;;;;;;;;;;;;;;;5026578;28;5995;-60
2024/02/24 06:36:45;;;;;;;;;;;;;;;;;;5032328;28;4615;-58
2024/02/24 06:39:10;;;;;;;;;;;;;;;;;;5032517;28;4666;-59
2024/02/24 06:41:35;;;;;;;;;;;;;;;;;;5029693;28;1117;-59
2024/02/24 06:44:01;;;;;;;;;;;;;;;;;;5034793;28;4619;-62
2024/02/24 06:46:26;;;;;;;;;;;;;;;;;;5027206;28;5161;-61
2024/02/24 06:48:52;;;;;;;;;;;;;;;;;;5039564;28;5083;-60
2024/02/24 06:51:17;;;;;;;;;;;;;;;;;;5029073;28;4474;-59
2024/02/24 06:53:42;;;;;;;;;;;;;;;;;;5039778;28;1144;-61
2024/02/24 06:56:08;;;;;;;;;;;;;;;;;;5023462;28;4482;-59
2024/02/24 06:58:33;;;;;;;;;;;;;;;;;;5043921;28;5024;-59
2024/02/24 07:00:59;;;;;;;;;;;;;;;;;;5037176;28;5178;-60
2024/02/24 07:03:24;;;;;;;;;;;;;;;;;;5044981;28;5118;-60
2024/02/24 07:05:49;;;;;;;;;;;;;;;;;;5024411;28;3330;-60
2024/02/24 07:08:15;;;;;;;;;;;;;;;;;;5019973;28;5085;-62
2024/02/24 07:10:40;;;;;;;;;;;;;;;;;;5022469;28;4898;-60
2024/02/24 07:13:05;;;;;;;;;;;;;;;;;;5024301;28;5258;-65
2024/02/24 07:15:31;;;;;;;;;;;;;;;;;;5029380;28;4613;-60
2024/02/24 07:17:56;;;;;;;;;;;;;;;;;;5023086;28;3274;-60
2024/02/24 07:20:21;;;;;;;;;;;;;;;;;;5029529;28;5357;-59
2024/02/24 07:22:48;;;;;;;;;;;;;;;;;;5034225;28;5032;-63
2024/02/24 07:25:14;;;;;;;;;;;;;;;;;;5029210;28;5507;-60
2024/02/24 07:27:39;;;;;;;;;;;;;;;;;;5037251;28;5057;-60
2024/02/24 07:30:05;;;;;;;;;;;;;;;;;;5033764;28;3409;-63
2024/02/24 07:32:30;;;;;;;;;;;;;;;;;;5035604;28;4988;-59
2024/02/24 07:34:56;;;;;;;;;;;;;;;;;;5005396;28;5179;-60
2024/02/24 07:37:21;;;;;;;;;;;;;;;;;;5025175;28;5208;-60
2024/02/24 07:39:46;;;;;;;;;;;;;;;;;;5028630;28;5185;-61
2024/02/24 07:42:12;;;;;;;;;;;;;;;;;;5036243;28;5136;-61
2024/02/24 07:44:37;;;;;;;;;;;;;;;;;;5024664;28;3337;-54
2024/02/24 07:47:06;;;;;;;;;;;;;;;;;;5033838;28;5207;-56
2024/02/24 07:49:31;;;;;;;;;;;;;;;;;;5035363;28;5220;-58
2024/02/24 07:51:57;;;;;;;;;;;;;;;;;;5022901;28;5084;-57
2024/02/24 07:54:22;;;;;;;;;;;;;;;;;;5033804;28;5010;-56
2024/02/24 07:56:48;;;;;;;;;;;;;;;;;;5052756;28;1393;-57
2024/02/24 07:59:13;;;;;;;;;;;;;;;;;;5043254;28;4537;-56
2024/02/24 08:01:38;;;;;;;;;;;;;;;;;;5027328;28;5003;-56
2024/02/24 08:04:04;;;;;;;;;;;;;;;;;;5028772;28;5693;-56
2024/02/24 08:06:31;;;;;;;;;;;;;;;;;;5022379;28;5149;-57
2024/02/24 08:08:56;;;;;;;;;;;;;;;;;;5011606;28;3322;-57
2024/02/24 08:11:24;;;;;;;;;;;;;;;;;;5034211;28;5146;-58
2024/02/24 08:13:49;;;;;;;;;;;;;;;;;;5024241;28;4744;-57
2024/02/24 08:16:19;;;;;;;;;;;;;;;;;;5044125;28;5195;-56
2024/02/24 08:18:45;;;;;;;;;;;;;;;;;;5031990;28;5402;-57
2024/02/24 08:21:10;;;;;;;;;;;;;;;;;;5029931;28;5171;-57
2024/02/24 08:23:35;;;;;;;;;;;;;;;;;;5033886;28;1073;-64
2024/02/24 08:26:01;;;;;;;;;;;;;;;;;;5032072;28;4998;-61
2024/02/24 08:28:26;;;;;;;;;;;;;;;;;;5029579;28;5226;-61
2024/02/24 08:30:51;;;;;;;;;;;;;;;;;;5031528;28;5073;-61
2024/02/24 08:33:22;;;;;;;;;;;;;;;;;;5029430;28;4920;-63
2024/02/24 08:35:47;;;;;;;;;;;;;;;;;;5034429;28;1353;-61
2024/02/24 08:38:13;;;;;;;;;;;;;;;;;;5032583;28;5125;-60
2024/02/24 08:40:38;;;;;;;;;;;;;;;;;;5014706;28;5051;-62
2024/02/24 08:43:04;;;;;;;;;;;;;;;;;;5019247;28;4623;-63
2024/02/24 08:45:29;;;;;;;;;;;;;;;;;;5025418;28;5194;-59
2024/02/24 08:47:54;;;;;;;;;;;;;;;;;;5023938;28;3367;-58
2024/02/24 08:50:20;;;;;;;;;;;;;;;;;;5026503;28;5004;-61
2024/02/24 08:52:45;;;;;;;;;;;;;;;;;;5032519;28;5210;-61
2024/02/24 08:55:10;;;;;;;;;;;;;;;;;;5034994;28;5295;-67
2024/02/24 08:57:36;;;;;;;;;;;;;;;;;;5040765;28;4490;-60
2024/02/24 09:00:01;;;;;;;;;;;;;;;;;;5039515;28;1042;-61
2024/02/24 09:02:26;;;;;;;;;;;;;;;;;;5038318;28;5023;-62
2024/02/24 09:04:52;;;;;;;;;;;;;;;;;;5027043;28;5072;-60
2024/02/24 09:07:18;;;;;;;;;;;;;;;;;;5034017;28;4924;-64
2024/02/24 09:09:44;;;;;;;;;;;;;;;;;;5037690;28;4850;-61
2024/02/24 09:12:09;;;;;;;;;;;;;;;;;;5035007;28;4702;-61
2024/02/24 09:14:34;;;;;;;;;;;;;;;;;;5034435;28;1333;-65
2024/02/24 09:17:00;;;;;;;;;;;;;;;;;;5038346;28;4945;-60
2024/02/24 09:19:26;;;;;;;;;;;;;;;;;;5034879;28;4955;-64
2024/02/24 09:21:51;;;;;;;;;;;;;;;;;;5039222;28;5005;-61
2024/02/24 09:24:16;;;;;;;;;;;;;;;;;;5013387;28;4854;-64
2024/02/24 09:26:42;;;;;;;;;;;;;;;;;;5037291;28;1981;-62
2024/02/24 09:29:07;;;;;;;;;;;;;;;;;;5036033;28;4619;-64
2024/02/24 09:31:33;;;;;;;;;;;;;;;;;;5031988;28;4458;-61
2024/02/24 09:33:58;;;;;;;;;;;;;;;;;;5012698;28;5026;-62
2024/02/24 09:36:24;;;;;;;;;;;;;;;;;;5045193;28;5074;-61
2024/02/24 09:38:49;;;;;;;;;;;;;;;;;;5027562;28;3101;-65
2024/02/24 09:41:16;;;;;;;;;;;;;;;;;;5011455;28;5079;-62
2024/02/24 09:43:41;;;;;;;;;;;;;;;;;;5016785;28;5257;-60
2024/02/24 09:46:07;;;;;;;;;;;;;;;;;;5025519;28;4996;-61
2024/02/24 09:48:32;;;;;;;;;;;;;;;;;;5024180;28;4514;-62
2024/02/24 09:50:59;;;;;;;;;;;;;;;;;;5017677;28;3345;-61
2024/02/24 09:53:25;;;;;;;;;;;;;;;;;;5021419;28;4996;-60
2024/02/24 09:55:50;;;;;;;;;;;;;;;;;;5021975;28;5140;-61
2024/02/24 09:58:15;;;;;;;;;;;;;;;;;;5018774;28;4998;-63
2024/02/24 10:00:40;;;;;;;;;;;;;;;;;;5020832;28;4576;-65
2024/02/24 10:03:06;;;;;;;;;;;;;;;;;;5022464;28;3513;-59
2024/02/24 10:05:31;;;;;;;;;;;;;;;;;;5003607;28;4986;-61
2024/02/24 10:07:58;;;;;;;;;;;;;;;;;;5021341;28;4852;-63
2024/02/24 10:10:26;;;;;;;;;;;;;;;;;;5033718;28;5193;-60
2024/02/24 10:12:55;;;;;;;;;;;;;;;;;;5023128;28;4660;-64
2024/02/24 10:15:20;;;;;;;;;;;;;;;;;;5023628;28;5000;-59
2024/02/24 10:17:45;;;;;;;;;;;;;;;;;;5025430;28;3452;-61
2024/02/24 10:20:11;;;;;;;;;;;;;;;;;;5019947;28;4844;-61
2024/02/24 10:22:37;;;;;;;;;;;;;;;;;;5014496;28;4938;-59
2024/02/24 10:25:02;;;;;;;;;;;;;;;;;;5021245;28;5016;-60
2024/02/24 10:27:28;;;;;;;;;;;;;;;;;;5021486;28;4550;-59
2024/02/24 10:29:53;;;;;;;;;;;;;;;;;;5036490;28;3293;-58
2024/02/24 10:32:18;;;;;;;;;;;;;;;;;;5021804;28;4609;-61
2024/02/24 10:34:44;;;;;;;;;;;;;;;;;;5020320;28;5073;-58
2024/02/24 10:37:09;;;;;;;;;;;;;;;;;;5030543;28;5114;-62
2024/02/24 10:39:34;;;;;;;;;;;;;;;;;;5019864;28;5196;-59
2024/02/24 10:42:04;;;;;;;;;;;;;;;;;;5039969;28;3071;-59
2024/02/24 10:44:31;;;;;;;;;;;;;;;;;;5021653;28;4493;-60
2024/02/24 10:46:56;;;;;;;;;;;;;;;;;;5034946;28;5108;-64
2024/02/24 10:49:21;;;;;;;;;;;;;;;;;;5023374;28;4520;-61
2024/02/24 10:51:50;;;;;;;;;;;;;;;;;;5027439;28;5060;-62
2024/02/24 10:54:17;;;;;;;;;;;;;;;;;;5033376;28;5260;-61
2024/02/24 10:56:42;;;;;;;;;;;;;;;;;;5015177;28;3255;-62
2024/02/24 10:59:08;;;;;;;;;;;;;;;;;;5024427;28;4674;-66
2024/02/24 11:01:39;;;;;;;;;;;;;;;;;;5022975;28;5093;-69
2024/02/24 11:04:09;;;;;;;;;;;;;;;;;;5034242;28;5245;-68
2024/02/24 11:06:44;;;;;;;;;;;;;;;;;;5039355;28;4730;-58
2024/02/24 11:09:13;;;;;;;;;;;;;;;;;;5016259;28;5422;-56
2024/02/24 11:11:39;;;;;;;;;;;;;;;;;;5022024;28;3440;-56
2024/02/24 11:14:06;;;;;;;;;;;;;;;;;;5023063;28;5068;-57
2024/02/24 11:16:35;;;;;;;;;;;;;;;;;;5018644;28;5099;-56
2024/02/24 11:19:01;;;;;;;;;;;;;;;;;;5044062;28;4489;-55
2024/02/24 11:21:44;;;;;;;;;;;;;;;;;;5027840;28;5059;-55
2024/02/24 11:24:17;;;;;;;;;;;;;;;;;;5020808;28;4935;-56
2024/02/24 11:26:45;;;;;;;;;;;;;;;;;;5021513;28;1914;-56
2024/02/24 11:29:11;;;;;;;;;;;;;;;;;;5020913;28;5055;-55
2024/02/24 11:31:37;;;;;;;;;;;;;;;;;;5000023;28;5147;-54
2024/02/24 11:34:05;;;;;;;;;;;;;;;;;;5041911;28;5095;-53
2024/02/24 11:36:31;;;;;;;;;;;;;;;;;;5029221;28;4975;-53
2024/02/24 11:38:57;;;;;;;;;;;;;;;;;;5028291;28;1117;-56
2024/02/24 11:41:22;;;;;;;;;;;;;;;;;;5031176;28;4708;-55
2024/02/24 11:43:47;;;;;;;;;;;;;;;;;;5029320;28;4880;-53
2024/02/24 11:46:13;;;;;;;;;;;;;;;;;;5028543;28;5059;-56
2024/02/24 11:48:38;;;;;;;;;;;;;;;;;;5043610;28;4904;-59
2024/02/24 11:51:03;;;;;;;;;;;;;;;;;;5028909;28;1071;-53
2024/02/24 11:53:29;;;;;;;;;;;;;;;;;;5029981;28;5056;-53
2024/02/24 11:55:55;;;;;;;;;;;;;;;;;;5029525;28;4464;-54
2024/02/24 11:58:20;;;;;;;;;;;;;;;;;;5015432;28;5031;-53
2024/02/24 12:00:45;;;;;;;;;;;;;;;;;;5029749;28;4566;-53
2024/02/24 12:03:11;;;;;;;;;;;;;;;;;;5034937;28;5123;-54
2024/02/24 12:05:37;;;;;;;;;;;;;;;;;;5030361;28;1386;-55
2024/02/24 12:08:05;;;;;;;;;;;;;;;;;;5028195;28;5345;-54
2024/02/24 12:10:37;;;;;;;;;;;;;;;;;;5008978;28;5097;-53
2024/02/24 12:13:09;;;;;;;;;;;;;;;;;;5028320;28;5075;-56
2024/02/24 12:15:35;;;;;;;;;;;;;;;;;;5030406;28;4481;-54
2024/02/24 12:18:01;;;;;;;;;;;;;;;;;;5028714;28;1058;-51
2024/02/24 12:20:26;;;;;;;;;;;;;;;;;;5029026;28;4992;-53
2024/02/24 12:22:51;;;;;;;;;;;;;;;;;;5036274;28;5088;-54
2024/02/24 12:25:17;;;;;;;;;;;;;;;;;;5039216;28;4900;-53
2024/02/24 12:27:42;;;;;;;;;;;;;;;;;;5046855;28;5045;-55
2024/02/24 12:30:08;;;;;;;;;;;;;;;;;;5036283;28;1138;-54
2024/02/24 12:32:34;;;;;;;;;;;;;;;;;;5010253;28;4955;-55
2024/02/24 12:35:06;;;;;;;;;;;;;;;;;;5028257;28;5250;-55
2024/02/24 12:37:34;;;;;;;;;;;;;;;;;;5033337;28;5057;-55
2024/02/24 12:40:00;;;;;;;;;;;;;;;;;;5033379;28;5025;-57
2024/02/24 12:42:26;;;;;;;;;;;;;;;;;;5031066;28;5123;-56
2024/02/24 12:44:52;;;;;;;;;;;;;;;;;;5032382;28;1098;-56
2024/02/24 12:47:17;;;;;;;;;;;;;;;;;;5031746;28;5111;-57
2024/02/24 12:49:42;;;;;;;;;;;;;;;;;;5040087;28;4990;-58
2024/02/24 12:52:08;;;;;;;;;;;;;;;;;;5034963;28;5008;-55
2024/02/24 12:54:33;;;;;;;;;;;;;;;;;;5039351;28;5116;-56
2024/02/24 12:56:58;;;;;;;;;;;;;;;;;;5043493;28;1139;-56
2024/02/24 12:59:24;;;;;;;;;;;;;;;;;;5037663;28;5149;-60
2024/02/24 13:01:49;;;;;;;;;;;;;;;;;;5041702;28;4926;-56
2024/02/24 13:04:15;;;;;;;;;;;;;;;;;;5041513;28;5020;-56
2024/02/24 13:06:40;;;;;;;;;;;;;;;;;;5031901;28;5083;-54
2024/02/24 13:09:05;;;;;;;;;;;;;;;;;;5030359;28;1118;-55
2024/02/24 13:11:31;;;;;;;;;;;;;;;;;;5042222;28;5069;-55
2024/02/24 13:13:56;;;;;;;;;;;;;;;;;;5052074;28;4651;-55
2024/02/24 13:16:22;;;;;;;;;;;;;;;;;;5039471;28;5068;-56
2024/02/24 13:18:47;;;;;;;;;;;;;;;;;;5034820;28;4629;-56
2024/02/24 13:21:13;;;;;;;;;;;;;;;;;;5034751;28;5230;-57
2024/02/24 13:23:38;;;;;;;;;;;;;;;;;;5033993;28;1160;-56
2024/02/24 13:26:04;;;;;;;;;;;;;;;;;;5039641;28;5277;-56
2024/02/24 13:28:29;;;;;;;;;;;;;;;;;;5038555;28;5167;-57
2024/02/24 13:30:54;;;;;;;;;;;;;;;;;;5029632;28;4991;-58
2024/02/24 13:33:19;;;;;;;;;;;;;;;;;;5037848;28;5088;-53
2024/02/24 13:35:45;;;;;;;;;;;;;;;;;;5030415;28;1292;-52
2024/02/24 13:38:10;;;;;;;;;;;;;;;;;;5010766;28;4750;-54
2024/02/24 13:40:35;;;;;;;;;;;;;;;;;;5034565;28;5085;-56
2024/02/24 13:43:01;;;;;;;;;;;;;;;;;;5030829;28;4974;-53
2024/02/24 13:45:26;;;;;;;;;;;;;;;;;;5032425;28;5005;-59
2024/02/24 13:47:51;;;;;;;;;;;;;;;;;;5024623;28;1922;-54
2024/02/24 13:50:19;;;;;;;;;;;;;;;;;;5033915;28;4931;-56
2024/02/24 13:52:45;;;;;;;;;;;;;;;;;;5035705;28;4869;-55
2024/02/24 13:55:10;;;;;;;;;;;;;;;;;;5039412;28;4751;-55
2024/02/24 13:57:36;;;;;;;;;;;;;;;;;;5035678;28;4983;-55
2024/02/24 14:00:06;;;;;;;;;;;;;;;;;;5014902;28;3310;-60
2024/02/24 14:02:32;;;;;;;;;;;;;;;;;;5019201;28;4451;-58
2024/02/24 14:04:57;;;;;;;;;;;;;;;;;;5016849;28;5127;-55
2024/02/24 14:07:22;;;;;;;;;;;;;;;;;;5031246;28;5227;-53
2024/02/24 14:09:48;;;;;;;;;;;;;;;;;;5031378;28;5139;-56
2024/02/24 14:12:13;;;;;;;;;;;;;;;;;;5027534;28;4530;-54
2024/02/24 14:14:38;;;;;;;;;;;;;;;;;;5035525;28;1145;-54
2024/02/24 14:17:04;;;;;;;;;;;;;;;;;;5020475;28;5009;-53
2024/02/24 14:19:31;;;;;;;;;;;;;;;;;;5034433;28;5112;-56
2024/02/24 14:21:56;;;;;;;;;;;;;;;;;;5014970;28;5142;-56
2024/02/24 14:24:21;;;;;;;;;;;;;;;;;;5020293;28;5111;-55
2024/02/24 14:26:47;;;;;;;;;;;;;;;;;;5020951;28;3314;-55
2024/02/24 14:29:12;;;;;;;;;;;;;;;;;;5020807;28;4566;-54
2024/02/24 14:31:38;;;;;;;;;;;;;;;;;;5017883;28;5031;-54
2024/02/24 14:34:03;;;;;;;;;;;;;;;;;;5022124;28;5145;-53
2024/02/24 14:36:29;;;;;;;;;;;;;;;;;;5027013;28;5047;-55
2024/02/24 14:38:54;;;;;;;;;;;;;;;;;;5009957;28;3138;-54
2024/02/24 14:41:19;;;;;;;;;;;;;;;;;;5019630;28;5025;-56
2024/02/24 14:43:45;;;;;;;;;;;;;;;;;;5019451;28;4937;-56
2024/02/24 14:46:10;;;;;;;;;;;;;;;;;;5028948;28;4747;-56
2024/02/24 14:48:35;;;;;;;;;;;;;;;;;;5023891;28;4615;-57
2024/02/24 14:51:01;;;;;;;;;;;;;;;;;;5024378;28;3002;-53
2024/02/24 14:53:27;;;;;;;;;;;;;;;;;;5020305;28;5171;-51
2024/02/24 14:55:52;;;;;;;;;;;;;;;;;;5018683;28;5096;-55
2024/02/24 14:58:19;;;;;;;;;;;;;;;;;;5021763;28;4507;-57
2024/02/24 15:00:44;;;;;;;;;;;;;;;;;;5025097;28;4938;-53
2024/02/24 15:03:10;;;;;;;;;;;;;;;;;;5022227;28;4505;-52
2024/02/24 15:05:35;;;;;;;;;;;;;;;;;;5006899;28;3325;-57
2024/02/24 15:08:02;;;;;;;;;;;;;;;;;;5000914;28;4755;-57
2024/02/24 15:10:27;;;;;;;;;;;;;;;;;;5001555;28;4959;-56
2024/02/24 15:12:52;;;;;;;;;;;;;;;;;;4994573;28;5052;-58
2024/02/24 15:15:18;;;;;;;;;;;;;;;;;;5006935;28;5334;-54
2024/02/24 15:17:43;;;;;;;;;;;;;;;;;;5015728;28;1199;-55
2024/02/24 15:20:10;;;;;;;;;;;;;;;;;;5019396;28;4850;-56
2024/02/24 15:22:35;;;;;;;;;;;;;;;;;;5016669;28;4974;-55
2024/02/24 15:25:00;;;;;;;;;;;;;;;;;;5021186;28;4671;-55
2024/02/24 15:27:26;;;;;;;;;;;;;;;;;;5014953;28;5326;-55
2024/02/24 15:29:51;;;;;;;;;;;;;;;;;;5003485;28;1211;-54
2024/02/24 15:32:16;;;;;;;;;;;;;;;;;;5009835;28;4576;-54
2024/02/24 15:34:42;;;;;;;;;;;;;;;;;;5016006;28;4858;-56
2024/02/24 15:37:07;;;;;;;;;;;;;;;;;;5008869;28;5050;-57
2024/02/24 15:39:33;;;;;;;;;;;;;;;;;;5016053;28;4628;-56
2024/02/24 15:41:58;;;;;;;;;;;;;;;;;;5013731;28;1094;-56
2024/02/24 15:44:23;;;;;;;;;;;;;;;;;;5019073;28;4486;-52
2024/02/24 15:46:50;;;;;;;;;;;;;;;;;;5012719;28;5146;-52
2024/02/24 15:49:15;;;;;;;;;;;;;;;;;;5014139;28;5174;-52
2024/02/24 15:51:41;;;;;;;;;;;;;;;;;;5019848;28;4986;-56
2024/02/24 15:54:06;;;;;;;;;;;;;;;;;;5019019;28;1133;-54
2024/02/24 15:56:31;;;;;;;;;;;;;;;;;;5018763;28;5108;-54
2024/02/24 15:58:57;;;;;;;;;;;;;;;;;;5023327;28;5051;-56
2024/02/24 16:01:24;;;;;;;;;;;;;;;;;;5022364;28;5143;-55
2024/02/24 16:03:50;;;;;;;;;;;;;;;;;;5021198;28;5110;-54
2024/02/24 16:06:15;;;;;;;;;;;;;;;;;;5037611;28;5157;-56
2024/02/24 16:08:42;;;;;;;;;;;;;;;;;;5041504;28;1910;-57
2024/02/24 16:11:07;;;;;;;;;;;;;;;;;;5038467;28;5089;-58
2024/02/24 16:13:33;;;;;;;;;;;;;;;;;;5045421;28;4579;-54
2024/02/24 16:15:59;;;;;;;;;;;;;;;;;;5037400;28;4545;-55
2024/02/24 16:18:24;;;;;;;;;;;;;;;;;;5041578;28;4673;-53
2024/02/24 16:20:49;;;;;;;;;;;;;;;;;;5041151;28;1069;-53
2024/02/24 16:23:15;;;;;;;;;;;;;;;;;;5041395;28;4685;-53
2024/02/24 16:25:41;;;;;;;;;;;;;;;;;;5045276;28;4988;-57
2024/02/24 16:28:06;;;;;;;;;;;;;;;;;;5019220;28;5136;-56
2024/02/24 16:30:32;;;;;;;;;;;;;;;;;;5042280;28;4742;-59
2024/02/24 16:32:57;;;;;;;;;;;;;;;;;;5036522;28;1247;-57
2024/02/24 16:35:23;;;;;;;;;;;;;;;;;;5036434;28;5061;-53
2024/02/24 16:37:48;;;;;;;;;;;;;;;;;;5035864;28;5372;-54
2024/02/24 16:40:13;;;;;;;;;;;;;;;;;;5030254;28;5123;-57
2024/02/24 16:42:39;;;;;;;;;;;;;;;;;;5032836;28;4470;-54
2024/02/24 16:45:05;;;;;;;;;;;;;;;;;;5035386;28;1125;-54
2024/02/24 16:47:30;;;;;;;;;;;;;;;;;;5015108;28;4504;-60
2024/02/24 16:49:56;;;;;;;;;;;;;;;;;;5033120;28;4909;-56
2024/02/24 16:52:21;;;;;;;;;;;;;;;;;;5040316;28;5060;-56